Time;durP1;ratioP1;P1;durP2;ratioP2;P2;SDS_P1;SDS_P2;PMS_P1;PMS_P2;Temp;Humidity;BMP_temperature;BMP_pressure;BME280_temperature;BME280_humidity;BME280_pressure;Samples;Min_cycle;Max_cycle;Signal;HPM_P1;HPM_P2
2022/08/29 00:00:17;;;;;;;;;;;;;;;;;;4985686;28;19914;-85
2022/08/29 00:02:42;;;;;;;;;;;;;;;;;;4986391;28;20162;-85
2022/08/29 00:05:07;;;;;;;;;;;;;;;;;;4986922;28;20001;-85
2022/08/29 00:07:32;;;;;;;;;;;;;;;;;;4989267;28;19941;-84
2022/08/29 00:09:57;;;;;;;;;;;;;;;;;;4984822;28;19985;-85
2022/08/29 00:12:22;;;;;;;;;;;;;;;;;;4987660;28;20090;-85
2022/08/29 00:14:48;;;;;;;;;;;;;;;;;;4985839;28;20006;-85
2022/08/29 00:17:13;;;;;;;;;;;;;;;;;;4985906;28;20295;-85
2022/08/29 00:19:38;;;;;;;;;;;;;;;;;;4987543;28;19921;-85
2022/08/29 00:22:03;;;;;;;;;;;;;;;;;;4991686;28;19921;-85
2022/08/29 00:24:28;;;;;;;;;;;;;;;;;;4987442;28;19918;-85
2022/08/29 00:26:53;;;;;;;;;;;;;;;;;;4987206;28;19968;-85
2022/08/29 00:29:19;;;;;;;;;;;;;;;;;;4986428;28;19922;-85
2022/08/29 00:31:44;;;;;;;;;;;;;;;;;;4985746;28;20384;-85
2022/08/29 00:34:09;;;;;;;;;;;;;;;;;;4983844;28;19914;-85
2022/08/29 00:36:35;;;;;;;;;;;;;;;;;;4985516;28;19976;-85
2022/08/29 00:39:00;;;;;;;;;;;;;;;;;;4987178;28;19925;-85
2022/08/29 00:41:25;;;;;;;;;;;;;;;;;;4984839;28;20368;-85
2022/08/29 00:43:50;;;;;;;;;;;;;;;;;;4987669;28;19913;-84
2022/08/29 00:46:15;;;;;;;;;;;;;;;;;;4988649;28;20128;-85
2022/08/29 00:48:40;;;;;;;;;;;;;;;;;;4987650;28;19929;-85
2022/08/29 00:51:06;;;;;;;;;;;;;;;;;;4987314;28;19917;-85
2022/08/29 00:53:31;;;;;;;;;;;;;;;;;;4983902;28;19925;-85
2022/08/29 00:55:56;;;;;;;;;;;;;;;;;;4963701;28;19922;-85
2022/08/29 00:58:21;;;;;;;;;;;;;;;;;;4986254;28;19933;-85
2022/08/29 01:00:47;;;;;;;;;;;;;;;;;;4986837;28;20470;-85
2022/08/29 01:03:12;;;;;;;;;;;;;;;;;;4985242;28;20019;-85
2022/08/29 01:05:37;;;;;;;;;;;;;;;;;;4986653;28;19915;-85
2022/08/29 01:08:02;;;;;;;;;;;;;;;;;;4984448;28;19924;-85
2022/08/29 01:13:12;;;;;;;;;;;;;;;;;;4983987;28;19928;-85
2022/08/29 01:15:37;;;;;;;;;;;;;;;;;;4987518;28;19914;-85
2022/08/29 01:18:02;;;;;;;;;;;;;;;;;;4983500;28;19933;-84
2022/08/29 01:20:27;;;;;;;;;;;;;;;;;;4984295;28;19924;-85
2022/08/29 01:22:52;;;;;;;;;;;;;;;;;;4986477;28;19917;-85
2022/08/29 01:25:18;;;;;;;;;;;;;;;;;;4987415;28;19913;-84
2022/08/29 01:27:43;;;;;;;;;;;;;;;;;;4983523;28;20322;-85
2022/08/29 01:30:08;;;;;;;;;;;;;;;;;;4984346;28;20420;-85
2022/08/29 01:32:33;;;;;;;;;;;;;;;;;;4987413;28;20478;-85
2022/08/29 01:34:59;;;;;;;;;;;;;;;;;;4984165;28;20070;-85
2022/08/29 01:37:24;;;;;;;;;;;;;;;;;;4983947;28;19918;-84
2022/08/29 01:39:49;;;;;;;;;;;;;;;;;;4985203;28;20004;-85
2022/08/29 01:42:14;;;;;;;;;;;;;;;;;;4985357;28;19924;-85
2022/08/29 01:44:39;;;;;;;;;;;;;;;;;;4982818;28;20108;-85
2022/08/29 01:47:05;;;;;;;;;;;;;;;;;;4982493;28;19937;-85
2022/08/29 01:49:30;;;;;;;;;;;;;;;;;;4979535;28;20391;-84
2022/08/29 01:51:55;;;;;;;;;;;;;;;;;;4979227;28;19988;-85
2022/08/29 01:54:20;;;;;;;;;;;;;;;;;;4977185;28;19998;-84
2022/08/29 01:56:45;;;;;;;;;;;;;;;;;;4976588;28;19960;-84
2022/08/29 01:59:10;;;;;;;;;;;;;;;;;;4982341;28;20028;-84
2022/08/29 02:01:36;;;;;;;;;;;;;;;;;;4979496;28;19921;-85
2022/08/29 02:04:01;;;;;;;;;;;;;;;;;;4980621;28;19929;-85
2022/08/29 02:06:26;;;;;;;;;;;;;;;;;;4980507;28;19921;-84
2022/08/29 02:08:51;;;;;;;;;;;;;;;;;;4983876;28;19917;-84
2022/08/29 02:11:16;;;;;;;;;;;;;;;;;;4983924;28;19924;-84
2022/08/29 02:13:41;;;;;;;;;;;;;;;;;;4984663;28;19925;-83
2022/08/29 02:16:07;;;;;;;;;;;;;;;;;;4985474;28;20347;-84
2022/08/29 02:18:32;;;;;;;;;;;;;;;;;;4962936;28;19918;-84
2022/08/29 02:20:57;;;;;;;;;;;;;;;;;;4986177;28;19957;-84
2022/08/29 02:23:23;;;;;;;;;;;;;;;;;;4986497;28;20027;-84
2022/08/29 02:25:48;;;;;;;;;;;;;;;;;;4984647;28;19910;-84
2022/08/29 02:28:14;;;;;;;;;;;;;;;;;;4984575;28;19914;-84
2022/08/29 02:30:39;;;;;;;;;;;;;;;;;;4985756;28;19914;-84
2022/08/29 02:33:04;;;;;;;;;;;;;;;;;;4984638;28;19917;-85
2022/08/29 02:35:29;;;;;;;;;;;;;;;;;;4986612;28;20004;-84
2022/08/29 02:37:55;;;;;;;;;;;;;;;;;;4983748;28;19941;-84
2022/08/29 02:40:20;;;;;;;;;;;;;;;;;;4981989;28;20173;-84
2022/08/29 02:42:45;;;;;;;;;;;;;;;;;;4983727;28;19957;-84
2022/08/29 02:45:10;;;;;;;;;;;;;;;;;;4987551;28;19917;-85
2022/08/29 02:47:35;;;;;;;;;;;;;;;;;;4989396;28;19956;-84
2022/08/29 02:50:01;;;;;;;;;;;;;;;;;;4989149;28;19980;-84
2022/08/29 02:52:26;;;;;;;;;;;;;;;;;;4986257;28;19937;-84
2022/08/29 02:54:51;;;;;;;;;;;;;;;;;;4989789;28;19929;-85
2022/08/29 02:57:16;;;;;;;;;;;;;;;;;;4989775;28;19996;-84
2022/08/29 02:59:43;;;;;;;;;;;;;;;;;;4973093;28;19913;-84
2022/08/29 03:02:08;;;;;;;;;;;;;;;;;;4987419;28;19918;-84
2022/08/29 03:04:33;;;;;;;;;;;;;;;;;;4987820;28;19921;-84
2022/08/29 03:06:58;;;;;;;;;;;;;;;;;;4988066;28;19917;-84
2022/08/29 03:09:23;;;;;;;;;;;;;;;;;;4988439;28;19914;-84
2022/08/29 03:11:51;;;;;;;;;;;;;;;;;;4986915;28;19920;-85
2022/08/29 03:14:16;;;;;;;;;;;;;;;;;;4986423;28;19918;-84
2022/08/29 03:16:41;;;;;;;;;;;;;;;;;;4989771;28;20421;-85
2022/08/29 03:19:06;;;;;;;;;;;;;;;;;;4986376;28;19921;-84
2022/08/29 03:21:32;;;;;;;;;;;;;;;;;;4984582;28;19917;-84
2022/08/29 03:23:57;;;;;;;;;;;;;;;;;;4989874;28;19921;-84
2022/08/29 03:26:23;;;;;;;;;;;;;;;;;;4991787;28;20041;-84
2022/08/29 03:28:48;;;;;;;;;;;;;;;;;;4990501;28;20287;-84
2022/08/29 03:31:13;;;;;;;;;;;;;;;;;;4989943;28;19959;-84
2022/08/29 03:33:38;;;;;;;;;;;;;;;;;;4970248;28;20372;-84
2022/08/29 03:36:04;;;;;;;;;;;;;;;;;;4988882;28;20120;-84
2022/08/29 03:38:29;;;;;;;;;;;;;;;;;;4990131;28;20368;-84
2022/08/29 03:40:55;;;;;;;;;;;;;;;;;;4988005;28;19921;-84
2022/08/29 03:43:20;;;;;;;;;;;;;;;;;;4987065;28;19918;-84
2022/08/29 03:45:45;;;;;;;;;;;;;;;;;;4988699;28;19976;-84
2022/08/29 03:48:11;;;;;;;;;;;;;;;;;;4987192;28;20372;-84
2022/08/29 03:50:36;;;;;;;;;;;;;;;;;;4988473;28;19914;-84
2022/08/29 03:53:01;;;;;;;;;;;;;;;;;;4987791;28;19926;-84
2022/08/29 03:55:26;;;;;;;;;;;;;;;;;;4986773;28;20013;-84
2022/08/29 03:57:51;;;;;;;;;;;;;;;;;;4988869;28;20164;-84
2022/08/29 04:00:16;;;;;;;;;;;;;;;;;;4969964;28;19975;-84
2022/08/29 04:02:42;;;;;;;;;;;;;;;;;;4989083;28;20574;-84
2022/08/29 04:05:07;;;;;;;;;;;;;;;;;;4986880;28;20379;-83
2022/08/29 04:07:32;;;;;;;;;;;;;;;;;;4989333;28;20503;-84
2022/08/29 04:09:58;;;;;;;;;;;;;;;;;;4990833;28;19929;-84
2022/08/29 04:12:23;;;;;;;;;;;;;;;;;;4971752;28;19921;-84
2022/08/29 04:14:48;;;;;;;;;;;;;;;;;;4983528;28;19918;-84
2022/08/29 04:17:13;;;;;;;;;;;;;;;;;;4986224;28;19914;-84
2022/08/29 04:19:38;;;;;;;;;;;;;;;;;;4985467;28;19947;-84
2022/08/29 04:22:03;;;;;;;;;;;;;;;;;;4988185;28;19922;-84
2022/08/29 04:24:29;;;;;;;;;;;;;;;;;;4984248;28;19917;-84
2022/08/29 04:26:54;;;;;;;;;;;;;;;;;;4984206;28;19917;-85
2022/08/29 04:29:19;;;;;;;;;;;;;;;;;;4984886;28;20387;-84
2022/08/29 04:31:44;;;;;;;;;;;;;;;;;;4986198;28;19998;-84
2022/08/29 04:34:09;;;;;;;;;;;;;;;;;;4988470;28;19913;-84
2022/08/29 04:36:34;;;;;;;;;;;;;;;;;;4986224;28;20009;-85
2022/08/29 04:39:00;;;;;;;;;;;;;;;;;;4988927;28;19964;-85
2022/08/29 04:41:25;;;;;;;;;;;;;;;;;;4984271;28;19918;-84
2022/08/29 04:43:50;;;;;;;;;;;;;;;;;;4986697;28;19915;-85
2022/08/29 04:46:15;;;;;;;;;;;;;;;;;;4986193;28;19918;-85
2022/08/29 04:48:40;;;;;;;;;;;;;;;;;;4982860;28;19914;-84
2022/08/29 04:51:06;;;;;;;;;;;;;;;;;;4978462;28;19964;-84
2022/08/29 04:53:31;;;;;;;;;;;;;;;;;;4985665;28;19926;-84
2022/08/29 04:55:56;;;;;;;;;;;;;;;;;;4987284;28;19941;-83
2022/08/29 04:58:23;;;;;;;;;;;;;;;;;;4982935;28;19913;-85
2022/08/29 05:00:48;;;;;;;;;;;;;;;;;;4981615;28;20427;-84
2022/08/29 05:03:13;;;;;;;;;;;;;;;;;;4982309;28;20012;-85
2022/08/29 05:10:46;;;;;;;;;;;;;;;;;;5009492;28;21269;-87
2022/08/29 05:13:11;;;;;;;;;;;;;;;;;;5015677;28;19924;-88
2022/08/29 05:15:36;;;;;;;;;;;;;;;;;;5009404;28;19909;-88
2022/08/29 05:18:01;;;;;;;;;;;;;;;;;;4991980;28;20268;-88
2022/08/29 05:20:27;;;;;;;;;;;;;;;;;;4982072;28;19944;-87
2022/08/29 05:22:52;;;;;;;;;;;;;;;;;;4974224;28;19914;-87
2022/08/29 05:25:17;;;;;;;;;;;;;;;;;;4980316;28;19925;-87
2022/08/29 05:27:42;;;;;;;;;;;;;;;;;;4984080;28;19922;-87
2022/08/29 05:30:07;;;;;;;;;;;;;;;;;;4980842;28;19921;-88
2022/08/29 05:32:33;;;;;;;;;;;;;;;;;;4984275;28;19925;-88
2022/08/29 05:34:58;;;;;;;;;;;;;;;;;;4973088;28;20367;-87
2022/08/29 05:37:24;;;;;;;;;;;;;;;;;;4979787;28;19922;-87
2022/08/29 05:39:49;;;;;;;;;;;;;;;;;;4975355;28;19910;-86
2022/08/29 05:42:15;;;;;;;;;;;;;;;;;;4985901;28;19914;-86
2022/08/29 05:44:41;;;;;;;;;;;;;;;;;;4978165;28;19997;-87
2022/08/29 05:47:06;;;;;;;;;;;;;;;;;;4981986;28;19996;-87
2022/08/29 05:49:31;;;;;;;;;;;;;;;;;;4974187;28;19921;-87
2022/08/29 05:51:56;;;;;;;;;;;;;;;;;;4989181;28;19957;-87
2022/08/29 05:54:21;;;;;;;;;;;;;;;;;;4999270;28;19960;-87
2022/08/29 05:56:46;;;;;;;;;;;;;;;;;;4989326;28;19914;-87
2022/08/29 05:59:12;;;;;;;;;;;;;;;;;;4983919;28;19914;-87
2022/08/29 06:01:37;;;;;;;;;;;;;;;;;;4980912;28;19949;-87
2022/08/29 06:04:02;;;;;;;;;;;;;;;;;;4980801;28;20363;-86
2022/08/29 06:06:28;;;;;;;;;;;;;;;;;;4980988;28;19918;-87
2022/08/29 06:08:53;;;;;;;;;;;;;;;;;;4993526;28;19925;-87
2022/08/29 06:11:18;;;;;;;;;;;;;;;;;;4995047;28;20005;-86
2022/08/29 06:13:43;;;;;;;;;;;;;;;;;;5006484;28;20351;-87
2022/08/29 06:16:08;;;;;;;;;;;;;;;;;;5005120;28;19929;-87
2022/08/29 06:18:33;;;;;;;;;;;;;;;;;;4998619;28;19918;-87
2022/08/29 06:20:59;;;;;;;;;;;;;;;;;;5001584;28;20452;-87
2022/08/29 06:23:24;;;;;;;;;;;;;;;;;;5003398;28;19936;-88
2022/08/29 06:25:49;;;;;;;;;;;;;;;;;;5009361;28;19914;-87
2022/08/29 06:28:14;;;;;;;;;;;;;;;;;;4982493;28;20012;-87
2022/08/29 06:30:39;;;;;;;;;;;;;;;;;;4998419;28;19921;-88
2022/08/29 06:33:04;;;;;;;;;;;;;;;;;;5005358;28;20020;-88
2022/08/29 06:35:30;;;;;;;;;;;;;;;;;;5004137;28;19960;-87
2022/08/29 06:37:55;;;;;;;;;;;;;;;;;;4984570;28;19918;-89
2022/08/29 06:40:20;;;;;;;;;;;;;;;;;;4994915;28;19913;-87
2022/08/29 06:42:45;;;;;;;;;;;;;;;;;;4992876;28;19926;-87
2022/08/29 06:45:10;;;;;;;;;;;;;;;;;;5003864;28;20306;-88
2022/08/29 06:47:35;;;;;;;;;;;;;;;;;;4995511;28;19917;-87
2022/08/29 06:50:01;;;;;;;;;;;;;;;;;;4996968;28;19957;-87
2022/08/29 06:52:29;;;;;;;;;;;;;;;;;;5000126;28;19925;-87
2022/08/29 06:54:54;;;;;;;;;;;;;;;;;;5000257;28;19914;-86
2022/08/29 06:57:19;;;;;;;;;;;;;;;;;;5001019;28;20264;-88
2022/08/29 06:59:44;;;;;;;;;;;;;;;;;;5011106;28;20337;-89
2022/08/29 07:02:10;;;;;;;;;;;;;;;;;;5008829;28;19956;-87
2022/08/29 07:04:35;;;;;;;;;;;;;;;;;;4991204;28;19914;-87
2022/08/29 07:07:00;;;;;;;;;;;;;;;;;;4992209;28;20375;-87
2022/08/29 07:09:25;;;;;;;;;;;;;;;;;;5006691;28;19922;-86
2022/08/29 07:11:52;;;;;;;;;;;;;;;;;;4997713;28;20287;-87
2022/08/29 07:14:17;;;;;;;;;;;;;;;;;;4998262;28;19984;-88
2022/08/29 07:16:43;;;;;;;;;;;;;;;;;;4991288;28;20001;-87
2022/08/29 07:19:09;;;;;;;;;;;;;;;;;;5005910;28;19921;-87
2022/08/29 07:21:34;;;;;;;;;;;;;;;;;;4998264;28;20363;-88
2022/08/29 07:23:59;;;;;;;;;;;;;;;;;;5005250;28;20022;-86
2022/08/29 07:26:24;;;;;;;;;;;;;;;;;;4999839;28;20083;-88
2022/08/29 07:28:49;;;;;;;;;;;;;;;;;;5000856;28;19920;-88
2022/08/29 07:31:15;;;;;;;;;;;;;;;;;;5003168;28;20068;-87
2022/08/29 07:33:40;;;;;;;;;;;;;;;;;;5008737;28;20301;-86
2022/08/29 07:36:05;;;;;;;;;;;;;;;;;;5017127;28;19918;-87
2022/08/29 07:38:31;;;;;;;;;;;;;;;;;;5011468;28;20374;-88
2022/08/29 07:40:56;;;;;;;;;;;;;;;;;;5004368;28;19921;-87
2022/08/29 07:43:21;;;;;;;;;;;;;;;;;;5022422;28;19913;-87
2022/08/29 07:45:47;;;;;;;;;;;;;;;;;;5013728;28;19913;-86
2022/08/29 07:48:12;;;;;;;;;;;;;;;;;;5022973;28;19915;-86
2022/08/29 07:50:37;;;;;;;;;;;;;;;;;;5012779;28;19917;-87
2022/08/29 07:53:02;;;;;;;;;;;;;;;;;;5005573;28;19952;-86
2022/08/29 07:55:27;;;;;;;;;;;;;;;;;;5012597;28;19909;-86
2022/08/29 07:57:52;;;;;;;;;;;;;;;;;;5012707;28;20017;-86
2022/08/29 08:00:18;;;;;;;;;;;;;;;;;;5012734;28;19909;-87
2022/08/29 08:02:43;;;;;;;;;;;;;;;;;;5012512;28;20390;-86
2022/08/29 08:05:08;;;;;;;;;;;;;;;;;;4995346;28;19916;-86
2022/08/29 08:07:34;;;;;;;;;;;;;;;;;;5012705;28;19909;-86
2022/08/29 08:10:00;;;;;;;;;;;;;;;;;;5012569;28;20390;-86
2022/08/29 08:12:25;;;;;;;;;;;;;;;;;;5012577;28;19919;-86
2022/08/29 08:14:51;;;;;;;;;;;;;;;;;;5012221;28;19975;-86
2022/08/29 08:17:16;;;;;;;;;;;;;;;;;;4995046;28;19920;-86
2022/08/29 08:19:41;;;;;;;;;;;;;;;;;;5018687;28;19919;-87
2022/08/29 08:22:07;;;;;;;;;;;;;;;;;;5025971;28;20358;-87
2022/08/29 08:24:32;;;;;;;;;;;;;;;;;;5012260;28;19909;-86
2022/08/29 08:26:57;;;;;;;;;;;;;;;;;;5012394;28;19949;-88
2022/08/29 08:29:22;;;;;;;;;;;;;;;;;;5012442;28;19937;-87
2022/08/29 08:31:48;;;;;;;;;;;;;;;;;;5011852;28;19924;-88
2022/08/29 08:34:14;;;;;;;;;;;;;;;;;;5010833;28;19913;-86
2022/08/29 08:36:41;;;;;;;;;;;;;;;;;;5009281;28;20295;-87
2022/08/29 08:39:06;;;;;;;;;;;;;;;;;;5010918;28;19948;-87
2022/08/29 08:41:31;;;;;;;;;;;;;;;;;;4992072;28;19917;-87
2022/08/29 08:43:57;;;;;;;;;;;;;;;;;;5008408;28;19914;-87
2022/08/29 08:46:22;;;;;;;;;;;;;;;;;;5009917;28;20258;-87
2022/08/29 08:48:48;;;;;;;;;;;;;;;;;;4993384;28;19936;-86
2022/08/29 08:51:13;;;;;;;;;;;;;;;;;;5006530;28;19910;-87
2022/08/29 08:53:41;;;;;;;;;;;;;;;;;;5003604;28;20294;-86
2022/08/29 08:56:06;;;;;;;;;;;;;;;;;;5002978;28;20022;-87
2022/08/29 08:58:31;;;;;;;;;;;;;;;;;;4999096;28;19976;-86
2022/08/29 09:00:57;;;;;;;;;;;;;;;;;;5002214;28;20259;-87
2022/08/29 09:03:23;;;;;;;;;;;;;;;;;;5011828;28;19919;-86
2022/08/29 09:05:49;;;;;;;;;;;;;;;;;;4990603;28;19921;-87
2022/08/29 09:08:14;;;;;;;;;;;;;;;;;;5009355;28;19914;-86
2022/08/29 09:10:39;;;;;;;;;;;;;;;;;;4996886;28;20375;-86
2022/08/29 09:13:05;;;;;;;;;;;;;;;;;;4991468;28;19918;-86
2022/08/29 09:15:30;;;;;;;;;;;;;;;;;;5006985;28;20004;-86
2022/08/29 09:17:56;;;;;;;;;;;;;;;;;;5008984;28;20045;-87
2022/08/29 09:20:21;;;;;;;;;;;;;;;;;;5010510;28;19909;-84
2022/08/29 09:22:47;;;;;;;;;;;;;;;;;;5009504;28;19964;-86
2022/08/29 09:25:13;;;;;;;;;;;;;;;;;;4997631;28;19960;-86
2022/08/29 09:27:38;;;;;;;;;;;;;;;;;;5006885;28;19913;-86
2022/08/29 09:30:03;;;;;;;;;;;;;;;;;;5000213;28;19916;-86
2022/08/29 09:32:28;;;;;;;;;;;;;;;;;;5018453;28;19929;-86
2022/08/29 09:34:53;;;;;;;;;;;;;;;;;;5008145;28;19921;-86
2022/08/29 09:37:18;;;;;;;;;;;;;;;;;;4988658;28;19992;-86
2022/08/29 09:39:43;;;;;;;;;;;;;;;;;;5007624;28;19909;-86
2022/08/29 09:42:09;;;;;;;;;;;;;;;;;;5004967;28;19920;-86
2022/08/29 09:44:34;;;;;;;;;;;;;;;;;;5004109;28;19910;-87
2022/08/29 09:46:59;;;;;;;;;;;;;;;;;;4995571;28;20433;-86
2022/08/29 09:49:24;;;;;;;;;;;;;;;;;;5002373;28;19913;-87
2022/08/29 09:51:49;;;;;;;;;;;;;;;;;;5002803;28;19961;-87
2022/08/29 09:54:14;;;;;;;;;;;;;;;;;;5001931;28;19922;-87
2022/08/29 09:56:40;;;;;;;;;;;;;;;;;;5006236;28;19951;-88
2022/08/29 09:59:05;;;;;;;;;;;;;;;;;;5010117;28;19914;-87
2022/08/29 10:01:31;;;;;;;;;;;;;;;;;;5015923;28;19920;-87
2022/08/29 10:03:56;;;;;;;;;;;;;;;;;;5006265;28;19921;-87
2022/08/29 10:06:21;;;;;;;;;;;;;;;;;;5003199;28;20077;-87
2022/08/29 10:08:46;;;;;;;;;;;;;;;;;;5007006;28;19976;-88
2022/08/29 10:11:12;;;;;;;;;;;;;;;;;;4999404;28;19917;-87
2022/08/29 10:13:37;;;;;;;;;;;;;;;;;;5001410;28;19924;-87
2022/08/29 10:16:02;;;;;;;;;;;;;;;;;;4998102;28;20304;-86
2022/08/29 10:18:27;;;;;;;;;;;;;;;;;;4992640;28;20165;-87
2022/08/29 10:20:52;;;;;;;;;;;;;;;;;;5002041;28;19922;-89
2022/08/29 10:23:18;;;;;;;;;;;;;;;;;;4990336;28;19920;-87
2022/08/29 10:25:43;;;;;;;;;;;;;;;;;;5000758;28;20438;-87
2022/08/29 10:28:08;;;;;;;;;;;;;;;;;;5005405;28;19913;-89
2022/08/29 10:30:33;;;;;;;;;;;;;;;;;;5002660;28;20457;-87
2022/08/29 10:32:59;;;;;;;;;;;;;;;;;;5007923;28;19926;-87
2022/08/29 10:35:26;;;;;;;;;;;;;;;;;;5004573;28;20131;-86
2022/08/29 10:37:52;;;;;;;;;;;;;;;;;;5009860;28;19996;-86
2022/08/29 10:40:17;;;;;;;;;;;;;;;;;;5009434;28;20335;-86
2022/08/29 10:42:42;;;;;;;;;;;;;;;;;;5001383;28;19921;-88
2022/08/29 10:45:08;;;;;;;;;;;;;;;;;;5013334;28;19949;-87
2022/08/29 10:47:33;;;;;;;;;;;;;;;;;;5005787;28;19946;-87
2022/08/29 10:49:59;;;;;;;;;;;;;;;;;;5005577;28;19941;-87
2022/08/29 10:52:24;;;;;;;;;;;;;;;;;;5008982;28;19917;-86
2022/08/29 10:54:49;;;;;;;;;;;;;;;;;;5005594;28;19978;-86
2022/08/29 10:57:14;;;;;;;;;;;;;;;;;;5002840;28;20045;-87
2022/08/29 10:59:41;;;;;;;;;;;;;;;;;;5005833;28;19914;-86
2022/08/29 11:02:07;;;;;;;;;;;;;;;;;;5006577;28;20298;-87
2022/08/29 11:04:33;;;;;;;;;;;;;;;;;;5007774;28;19921;-87
2022/08/29 11:06:58;;;;;;;;;;;;;;;;;;5009156;28;19921;-87
2022/08/29 11:09:23;;;;;;;;;;;;;;;;;;5012418;28;19917;-88
2022/08/29 11:11:48;;;;;;;;;;;;;;;;;;5008764;28;19921;-87
2022/08/29 11:14:14;;;;;;;;;;;;;;;;;;5025787;28;19913;-87
2022/08/29 11:16:39;;;;;;;;;;;;;;;;;;5002717;28;20060;-88
2022/08/29 11:19:04;;;;;;;;;;;;;;;;;;5003734;28;19968;-87
2022/08/29 11:21:29;;;;;;;;;;;;;;;;;;5008747;28;19917;-88
2022/08/29 11:23:57;;;;;;;;;;;;;;;;;;5008576;28;19917;-88
2022/08/29 11:26:22;;;;;;;;;;;;;;;;;;5000656;28;20052;-88
2022/08/29 11:28:50;;;;;;;;;;;;;;;;;;5004962;28;20385;-86
2022/08/29 11:31:15;;;;;;;;;;;;;;;;;;5004419;28;20004;-87
2022/08/29 11:33:40;;;;;;;;;;;;;;;;;;5003788;28;20016;-88
2022/08/29 11:36:06;;;;;;;;;;;;;;;;;;5006011;28;20390;-86
2022/08/29 11:38:31;;;;;;;;;;;;;;;;;;4984359;28;20008;-87
2022/08/29 11:40:56;;;;;;;;;;;;;;;;;;5007624;28;19922;-88
2022/08/29 11:43:22;;;;;;;;;;;;;;;;;;5004934;28;19913;-88
2022/08/29 11:45:48;;;;;;;;;;;;;;;;;;5009041;28;19917;-88
2022/08/29 11:48:13;;;;;;;;;;;;;;;;;;5001031;28;20303;-89
2022/08/29 11:50:39;;;;;;;;;;;;;;;;;;5008887;28;19921;-88
2022/08/29 11:53:04;;;;;;;;;;;;;;;;;;5013206;28;19968;-88
2022/08/29 11:55:30;;;;;;;;;;;;;;;;;;5012598;28;20019;-89
2022/08/29 11:57:55;;;;;;;;;;;;;;;;;;5007977;28;20433;-88
2022/08/29 12:00:23;;;;;;;;;;;;;;;;;;5008910;28;19917;-88
2022/08/29 12:02:48;;;;;;;;;;;;;;;;;;5003409;28;20290;-87
2022/08/29 12:08:11;;;;;;;;;;;;;;;;;;4983998;28;20063;-88
2022/08/29 12:10:36;;;;;;;;;;;;;;;;;;5007276;28;19997;-88
2022/08/29 12:13:01;;;;;;;;;;;;;;;;;;5003081;28;19944;-89
2022/08/29 12:15:26;;;;;;;;;;;;;;;;;;5002588;28;20008;-88
2022/08/29 12:17:52;;;;;;;;;;;;;;;;;;4995780;28;19920;-88
2022/08/29 12:20:17;;;;;;;;;;;;;;;;;;5008885;28;19910;-87
2022/08/29 12:22:42;;;;;;;;;;;;;;;;;;5005612;28;19953;-89
2022/08/29 12:25:07;;;;;;;;;;;;;;;;;;5002717;28;20406;-87
2022/08/29 12:27:33;;;;;;;;;;;;;;;;;;5005076;28;19961;-87
2022/08/29 12:29:58;;;;;;;;;;;;;;;;;;4999563;28;19971;-88
2022/08/29 12:32:26;;;;;;;;;;;;;;;;;;5006473;28;19922;-88
2022/08/29 12:34:51;;;;;;;;;;;;;;;;;;5006612;28;19956;-88
2022/08/29 12:37:17;;;;;;;;;;;;;;;;;;5006651;28;19944;-87
2022/08/29 12:39:42;;;;;;;;;;;;;;;;;;5010466;28;19939;-88
2022/08/29 12:42:07;;;;;;;;;;;;;;;;;;5006584;28;19913;-88
2022/08/29 12:44:32;;;;;;;;;;;;;;;;;;5005941;28;19918;-86
2022/08/29 12:46:57;;;;;;;;;;;;;;;;;;4996890;28;20391;-88
2022/08/29 12:49:23;;;;;;;;;;;;;;;;;;4996414;28;19914;-90
2022/08/29 12:51:48;;;;;;;;;;;;;;;;;;4998958;28;20235;-89
2022/08/29 12:54:13;;;;;;;;;;;;;;;;;;4995780;28;19922;-88
2022/08/29 12:56:38;;;;;;;;;;;;;;;;;;4999253;28;19966;-88
2022/08/29 12:59:03;;;;;;;;;;;;;;;;;;5001118;28;19917;-87
2022/08/29 13:01:29;;;;;;;;;;;;;;;;;;4998019;28;19964;-87
2022/08/29 13:03:54;;;;;;;;;;;;;;;;;;4985891;28;19968;-87
2022/08/29 13:06:20;;;;;;;;;;;;;;;;;;5002061;28;20454;-88
2022/08/29 13:08:45;;;;;;;;;;;;;;;;;;5002885;28;20005;-87
2022/08/29 13:11:11;;;;;;;;;;;;;;;;;;4996504;28;19928;-88
2022/08/29 13:13:36;;;;;;;;;;;;;;;;;;4998990;28;19971;-89
2022/08/29 13:16:01;;;;;;;;;;;;;;;;;;5002478;28;19913;-88
2022/08/29 13:18:27;;;;;;;;;;;;;;;;;;4999850;28;20434;-88
2022/08/29 13:20:52;;;;;;;;;;;;;;;;;;4984232;28;19944;-88
2022/08/29 13:23:17;;;;;;;;;;;;;;;;;;5001029;28;20439;-88
2022/08/29 13:25:42;;;;;;;;;;;;;;;;;;4996679;28;19921;-88
2022/08/29 13:28:08;;;;;;;;;;;;;;;;;;4998341;28;19918;-87
2022/08/29 13:30:34;;;;;;;;;;;;;;;;;;4999459;28;20012;-88
2022/08/29 13:32:59;;;;;;;;;;;;;;;;;;4994897;28;20020;-89
2022/08/29 13:35:25;;;;;;;;;;;;;;;;;;4998147;28;20032;-88
2022/08/29 13:37:50;;;;;;;;;;;;;;;;;;4998018;28;20192;-88
2022/08/29 13:40:15;;;;;;;;;;;;;;;;;;5003116;28;19917;-87
2022/08/29 13:42:42;;;;;;;;;;;;;;;;;;5003717;28;19960;-88
2022/08/29 13:45:07;;;;;;;;;;;;;;;;;;5008202;28;19920;-88
2022/08/29 13:47:32;;;;;;;;;;;;;;;;;;5001194;28;19921;-88
2022/08/29 13:49:58;;;;;;;;;;;;;;;;;;4998599;28;20000;-87
2022/08/29 13:52:23;;;;;;;;;;;;;;;;;;4993349;28;20291;-89
2022/08/29 13:54:48;;;;;;;;;;;;;;;;;;5000313;28;19922;-88
2022/08/29 13:57:13;;;;;;;;;;;;;;;;;;4995141;28;20416;-89
2022/08/29 13:59:38;;;;;;;;;;;;;;;;;;4997252;28;19918;-89
2022/08/29 14:02:04;;;;;;;;;;;;;;;;;;4997963;28;19968;-88
2022/08/29 14:04:29;;;;;;;;;;;;;;;;;;5000523;28;19972;-88
2022/08/29 14:06:54;;;;;;;;;;;;;;;;;;4996699;28;20012;-87
2022/08/29 14:09:20;;;;;;;;;;;;;;;;;;4995366;28;19917;-87
2022/08/29 14:11:45;;;;;;;;;;;;;;;;;;4997728;28;19917;-88
2022/08/29 14:14:10;;;;;;;;;;;;;;;;;;4993866;28;19929;-87
2022/08/29 14:16:35;;;;;;;;;;;;;;;;;;4998020;28;20272;-88
2022/08/29 14:19:00;;;;;;;;;;;;;;;;;;4981092;28;19922;-88
2022/08/29 14:21:26;;;;;;;;;;;;;;;;;;4997418;28;19917;-88
2022/08/29 14:23:52;;;;;;;;;;;;;;;;;;4995268;28;19926;-88
2022/08/29 14:26:17;;;;;;;;;;;;;;;;;;5010895;28;20393;-87
2022/08/29 14:28:43;;;;;;;;;;;;;;;;;;4999852;28;19921;-87
2022/08/29 14:31:08;;;;;;;;;;;;;;;;;;4999092;28;19921;-87
2022/08/29 14:33:33;;;;;;;;;;;;;;;;;;4998931;28;19918;-88
2022/08/29 14:35:58;;;;;;;;;;;;;;;;;;5004067;28;19961;-88
2022/08/29 14:38:23;;;;;;;;;;;;;;;;;;4997101;28;19924;-88
2022/08/29 14:40:48;;;;;;;;;;;;;;;;;;5003527;28;20028;-87
2022/08/29 14:43:14;;;;;;;;;;;;;;;;;;5004744;28;19917;-88
2022/08/29 14:45:39;;;;;;;;;;;;;;;;;;4991517;28;20012;-88
2022/08/29 14:48:05;;;;;;;;;;;;;;;;;;5004881;28;19936;-88
2022/08/29 14:50:35;;;;;;;;;;;;;;;;;;5008595;28;19922;-87
2022/08/29 14:53:01;;;;;;;;;;;;;;;;;;5003579;28;19955;-88
2022/08/29 14:55:26;;;;;;;;;;;;;;;;;;5003759;28;19953;-87
2022/08/29 14:57:51;;;;;;;;;;;;;;;;;;5004163;28;19984;-88
2022/08/29 15:00:16;;;;;;;;;;;;;;;;;;5001108;28;20303;-88
2022/08/29 15:02:41;;;;;;;;;;;;;;;;;;5004305;28;19932;-89
2022/08/29 15:05:07;;;;;;;;;;;;;;;;;;4990017;28;19917;-89
2022/08/29 15:07:32;;;;;;;;;;;;;;;;;;4999919;28;19922;-87
2022/08/29 15:09:57;;;;;;;;;;;;;;;;;;5001324;28;19925;-87
2022/08/29 15:12:23;;;;;;;;;;;;;;;;;;4996893;28;20554;-87
2022/08/29 15:14:48;;;;;;;;;;;;;;;;;;4997053;28;19913;-85
2022/08/29 15:17:14;;;;;;;;;;;;;;;;;;4991388;28;20522;-87
2022/08/29 15:19:39;;;;;;;;;;;;;;;;;;5004507;28;19920;-87
2022/08/29 15:22:04;;;;;;;;;;;;;;;;;;5008965;28;19967;-89
2022/08/29 15:24:42;;;;;;;;;;;;;;;;;;;;;
2022/08/29 15:27:16;;;;;;;;;;;;;;;;;;4996313;28;19918;-89
2022/08/29 15:29:44;;;;;;;;;;;;;;;;;;5009024;28;19941;-88
2022/08/29 15:32:20;;;;;;;;;;;;;;;;;;;;;
2022/08/29 15:40:35;;;;;;;;;;;;;;;;;;;;;
2022/08/29 15:43:13;;;;;;;;;;;;;;;;;;;;;
2022/08/29 16:00:06;;;;;;;;;;;;;;;;;;4946686;29;19918;-88
2022/08/29 16:06:00;;;;;;;;;;;;;;;;;;4923321;29;19938;-89
2022/08/29 16:08:34;;;;;;;;;;;;;;;;;;4927518;29;19914;-89
2022/08/29 16:11:03;;;;;;;;;;;;;;;;;;4933365;29;19926;-88
2022/08/29 16:13:33;;;;;;;;;;;;;;;;;;4931349;29;20013;-87
2022/08/29 16:16:05;;;;;;;;;;;;;;;;;;4940828;28;19914;-87
2022/08/29 16:21:32;;;;;;;;;;;;;;;;;;;;;
2022/08/29 16:36:57;;;;;;;;;;;;;;;;;;4985954;28;19926;-85
2022/08/29 16:46:59;;;;;;;;;;;;;;;;;;4946935;28;20145;-86
2022/08/29 16:52:09;;;;;;;;;;;;;;;;;;4939044;29;19973;-86
2022/08/29 16:54:36;;;;;;;;;;;;;;;;;;4931158;29;20025;-86
2022/08/29 16:57:02;;;;;;;;;;;;;;;;;;4928179;29;19934;-85
2022/08/29 16:59:37;;;;;;;;;;;;;;;;;;4940738;29;19915;-86
2022/08/29 17:02:05;;;;;;;;;;;;;;;;;;4931083;29;19926;-85
2022/08/29 17:04:32;;;;;;;;;;;;;;;;;;4933750;29;20105;-86
2022/08/29 17:07:15;;;;;;;;;;;;;;;;;;4939291;29;19986;-85
2022/08/29 17:17:06;;;;;;;;;;;;;;;;;;4932189;29;19926;-86
2022/08/29 17:20:16;;;;;;;;;;;;;;;;;;4946162;29;20006;-87
2022/08/29 18:01:37;;;;;;;;;;;;;;;;;;5006341;28;19930;-85
2022/08/29 18:04:28;;;;;;;;;;;;;;;;;;;;;
2022/08/29 18:07:11;;;;;;;;;;;;;;;;;;5005479;28;19920;-86
2022/08/29 18:09:46;;;;;;;;;;;;;;;;;;;;;
2022/08/29 18:15:10;;;;;;;;;;;;;;;;;;4977654;28;19944;-87
2022/08/29 18:26:13;;;;;;;;;;;;;;;;;;4979361;28;19913;-86
2022/08/29 18:31:34;;;;;;;;;;;;;;;;;;4992542;28;19961;-86
2022/08/29 18:39:44;;;;;;;;;;;;;;;;;;4994583;28;19963;-86
2022/08/29 18:42:12;;;;;;;;;;;;;;;;;;5001361;28;20628;-86
2022/08/29 18:44:37;;;;;;;;;;;;;;;;;;5009412;28;19964;-86
2022/08/29 18:47:12;;;;;;;;;;;;;;;;;;;;;